Pti Huang He — VRQD8 — position and weather

sailwx.info

Track history (hours):
 
Tides and Currents Weather Stations Pressure Air Temp Water Temp Dewpoint Dewpoint Depression Visibility Wind Speed Wind Dir Waves Ship Positions

Pti Huang He

Last reported at 2018-Apr-23 21:00 UTC. Time now 2018-Apr-23 21:28 UTC.
Position N 30°14' W 093°15'.

Length 183 m; draft 8.6 m.

Type: Tanker. MMSI: 477252200.

Date/timePositionNaut miles runAvg speedWind from/ knotsBaromVisibWave heightAir tempDewpointWater temp
2018-Apr-23 21:00N 30°14' W 093°15'0 0.0
2018-Apr-23 20:30N 30°14' W 093°15'0 0.0
2018-Apr-23 19:57N 30°14' W 093°15'0 0.0
2018-Apr-23 19:27N 30°14' W 093°15'0 0.0
2018-Apr-23 19:00N 30°14' W 093°15'0 0.0
2018-Apr-23 18:30N 30°14' W 093°15'0 0.0
2018-Apr-23 17:57N 30°14' W 093°15'0 0.0
2018-Apr-23 17:30N 30°14' W 093°15'0 0.0
2018-Apr-23 17:00N 30°14' W 093°15'0 0.0
2018-Apr-23 16:30N 30°14' W 093°15'0 0.0
2018-Apr-23 16:00N 30°14' W 093°15'0 0.0
2018-Apr-23 15:30N 30°14' W 093°15'0 0.0
2018-Apr-23 15:00N 30°14' W 093°15'0 0.0
2018-Apr-23 14:30N 30°14' W 093°15'0 0.0
2018-Apr-23 14:00N 30°14' W 093°15'0 0.0
2018-Apr-23 13:30N 30°14' W 093°15'0 0.0
2018-Apr-23 12:57N 30°14' W 093°15'0 0.0
2018-Apr-23 12:27N 30°14' W 093°15'0 0.0
2018-Apr-23 12:00N 30°14' W 093°15'0 0.0
2018-Apr-23 11:30N 30°14' W 093°15'0 0.0
2018-Apr-23 11:00N 30°14' W 093°15'0 0.0
2018-Apr-23 10:30N 30°14' W 093°15'0 0.0
2018-Apr-23 10:00N 30°14' W 093°15'0 0.0
2018-Apr-23 09:30N 30°14' W 093°15'0 0.0
2018-Apr-23 08:57N 30°14' W 093°15'0 0.0
2018-Apr-23 08:30N 30°14' W 093°15'0 0.0
2018-Apr-23 08:00N 30°14' W 093°15'0 0.0
2018-Apr-23 07:30N 30°14' W 093°15'0 0.0
2018-Apr-23 07:00N 30°14' W 093°15'0 0.0
2018-Apr-23 06:30N 30°14' W 093°15'0 0.0
2018-Apr-23 05:57N 30°14' W 093°15'0 0.0
2018-Apr-23 05:30N 30°14' W 093°15'0 0.0
2018-Apr-23 05:00N 30°14' W 093°15'0 0.0
2018-Apr-23 04:30N 30°14' W 093°15'0 0.0
2018-Apr-23 04:00N 30°14' W 093°15'0 0.0
2018-Apr-23 03:30N 30°14' W 093°15'0 0.0
2018-Apr-23 03:00N 30°14' W 093°15'0 0.0
2018-Apr-23 02:30N 30°14' W 093°15'0 0.0
2018-Apr-23 01:57N 30°14' W 093°15'0 0.0
2018-Apr-23 01:30N 30°14' W 093°15'0 0.0
2018-Apr-23 01:00N 30°14' W 093°15'0 0.0
2018-Apr-23 00:30N 30°14' W 093°15'0 0.0
2018-Apr-22 23:57N 30°14' W 093°15'0 0.0
2018-Apr-22 23:27N 30°14' W 093°15'0 0.0
2018-Apr-22 22:54N 30°14' W 093°15'0 0.0
2018-Apr-22 22:30N 30°14' W 093°15'0 0.0
2018-Apr-22 22:00N 30°14' W 093°15'0 0.0
2018-Apr-22 21:27N 30°14' W 093°15'0 0.0
2018-Apr-22 21:00N 30°14' W 093°15'0 0.0
2018-Apr-22 20:30N 30°14' W 093°15'0 0.0
2018-Apr-22 20:00N 30°14' W 093°15'1 2.6
2018-Apr-22 19:31N 30°12' W 093°16'3 5.6
2018-Apr-22 19:00N 30°11' W 093°18'2 4.3
2018-Apr-22 18:30N 30°09' W 093°20'3 6.5
2018-Apr-22 18:00N 30°06' W 093°20'4 7.6
2018-Apr-22 17:31N 30°02' W 093°20'3 6.7
2018-Apr-22 17:00N 29°59' W 093°20'5 9.2
2018-Apr-22 16:31N 29°54' W 093°20'5 9.3
2018-Apr-22 16:01N 29°50' W 093°21'5 9.3
2018-Apr-22 15:30N 29°45' W 093°21'510.0
2018-Apr-22 14:58N 29°40' W 093°20'  
2018-Apr-18 08:08N 29°18' W 093°08'0 0.0
2018-Apr-18 06:38N 29°18' W 093°08'0 0.3
2018-Apr-18 04:53N 29°19' W 093°09'2 5.0
2018-Apr-18 04:30N 29°20' W 093°10'6 7.0
2018-Apr-18 03:43N 29°15' W 093°12'312.2
2018-Apr-18 03:29N 29°12' W 093°12'712.7
2018-Apr-18 02:56N 29°05' W 093°12'512.6
2018-Apr-18 02:30N 28°60' W 093°12'712.4
2018-Apr-18 01:57N 28°53' W 093°12'512.3
2018-Apr-18 01:30N 28°47' W 093°12'712.5
2018-Apr-18 00:58N 28°41' W 093°12'5 9.7
2018-Apr-18 00:30N 28°37' W 093°16'712.9
2018-Apr-18 00:00N 28°37' W 093°23'812.9
2018-Apr-17 23:22N 28°36' W 093°32'513.0
2018-Apr-17 23:00N 28°35' W 093°38'613.0
2018-Apr-17 22:30N 28°34' W 093°45'613.0
2018-Apr-17 22:00N 28°33' W 093°52'613.0
2018-Apr-17 21:30N 28°33' W 093°59'713.1
2018-Apr-17 20:57N 28°33' W 094°08'613.0
2018-Apr-17 20:30N 28°33' W 094°14'713.1
2018-Apr-17 19:58N 28°34' W 094°22'511.2
2018-Apr-17 19:29N 28°34' W 094°28'0 0.3
2018-Apr-17 18:58N 28°34' W 094°28'0 0.0
2018-Apr-17 13:28N 28°34' W 094°28'0 0.0
2018-Apr-17 12:46N 28°34' W 094°28'0 0.0
2018-Apr-17 11:25N 28°34' W 094°28'0 0.0
2018-Apr-17 10:28N 28°34' W 094°28'0 0.0
2018-Apr-17 09:25N 28°34' W 094°28'0 0.0
2018-Apr-17 08:58N 28°34' W 094°28'0 0.0
2018-Apr-17 08:19N 28°34' W 094°28'0 0.1
2018-Apr-17 07:55N 28°34' W 094°28'0 0.1
2018-Apr-17 07:22N 28°34' W 094°28'0 0.2
2018-Apr-17 06:58N 28°34' W 094°28'0 0.1
2018-Apr-17 06:25N 28°34' W 094°28'0 0.1
2018-Apr-17 05:58N 28°34' W 094°28'0 0.0
2018-Apr-17 04:19N 28°34' W 094°28'0 0.1
2018-Apr-17 03:49N 28°34' W 094°28'0 0.0
2018-Apr-17 03:28N 28°34' W 094°28'0 0.0
2018-Apr-17 02:34N 28°34' W 094°28'0 0.1
2018-Apr-17 02:16N 28°34' W 094°28'  
Track history (hours):
 
Tides and Currents Weather Stations Pressure Air Temp Water Temp Dewpoint Dewpoint Depression Visibility Wind Speed Wind Dir Waves Ship Positions

Pti Huang He

Last reported at 2018-Apr-23 21:00 UTC. Time now 2018-Apr-23 21:28 UTC.
Position N 30°14' W 093°15'.

Length 183 m; draft 8.6 m.

Type: Tanker. MMSI: 477252200.

Date/timePositionNaut miles runAvg speedWind from/ knotsBaromVisibWave heightAir tempDewpointWater temp
2018-Apr-23 21:00N 30°14' W 093°15'0 0.0
2018-Apr-23 20:30N 30°14' W 093°15'0 0.0
2018-Apr-23 19:57N 30°14' W 093°15'0 0.0
2018-Apr-23 19:27N 30°14' W 093°15'0 0.0
2018-Apr-23 19:00N 30°14' W 093°15'0 0.0
2018-Apr-23 18:30N 30°14' W 093°15'0 0.0
2018-Apr-23 17:57N 30°14' W 093°15'0 0.0
2018-Apr-23 17:30N 30°14' W 093°15'0 0.0
2018-Apr-23 17:00N 30°14' W 093°15'0 0.0
2018-Apr-23 16:30N 30°14' W 093°15'0 0.0
2018-Apr-23 16:00N 30°14' W 093°15'0 0.0
2018-Apr-23 15:30N 30°14' W 093°15'0 0.0
2018-Apr-23 15:00N 30°14' W 093°15'0 0.0
2018-Apr-23 14:30N 30°14' W 093°15'0 0.0
2018-Apr-23 14:00N 30°14' W 093°15'0 0.0
2018-Apr-23 13:30N 30°14' W 093°15'0 0.0
2018-Apr-23 12:57N 30°14' W 093°15'0 0.0
2018-Apr-23 12:27N 30°14' W 093°15'0 0.0
2018-Apr-23 12:00N 30°14' W 093°15'0 0.0
2018-Apr-23 11:30N 30°14' W 093°15'0 0.0
2018-Apr-23 11:00N 30°14' W 093°15'0 0.0
2018-Apr-23 10:30N 30°14' W 093°15'0 0.0
2018-Apr-23 10:00N 30°14' W 093°15'0 0.0
2018-Apr-23 09:30N 30°14' W 093°15'0 0.0
2018-Apr-23 08:57N 30°14' W 093°15'0 0.0
2018-Apr-23 08:30N 30°14' W 093°15'0 0.0
2018-Apr-23 08:00N 30°14' W 093°15'0 0.0
2018-Apr-23 07:30N 30°14' W 093°15'0 0.0
2018-Apr-23 07:00N 30°14' W 093°15'0 0.0
2018-Apr-23 06:30N 30°14' W 093°15'0 0.0
2018-Apr-23 05:57N 30°14' W 093°15'0 0.0
2018-Apr-23 05:30N 30°14' W 093°15'0 0.0
2018-Apr-23 05:00N 30°14' W 093°15'0 0.0
2018-Apr-23 04:30N 30°14' W 093°15'0 0.0
2018-Apr-23 04:00N 30°14' W 093°15'0 0.0
2018-Apr-23 03:30N 30°14' W 093°15'0 0.0
2018-Apr-23 03:00N 30°14' W 093°15'0 0.0
2018-Apr-23 02:30N 30°14' W 093°15'0 0.0
2018-Apr-23 01:57N 30°14' W 093°15'0 0.0
2018-Apr-23 01:30N 30°14' W 093°15'0 0.0
2018-Apr-23 01:00N 30°14' W 093°15'0 0.0
2018-Apr-23 00:30N 30°14' W 093°15'0 0.0
2018-Apr-22 23:57N 30°14' W 093°15'0 0.0
2018-Apr-22 23:27N 30°14' W 093°15'0 0.0
2018-Apr-22 22:54N 30°14' W 093°15'0 0.0
2018-Apr-22 22:30N 30°14' W 093°15'0 0.0
2018-Apr-22 22:00N 30°14' W 093°15'0 0.0
2018-Apr-22 21:27N 30°14' W 093°15'0 0.0
2018-Apr-22 21:00N 30°14' W 093°15'0 0.0
2018-Apr-22 20:30N 30°14' W 093°15'0 0.0
2018-Apr-22 20:00N 30°14' W 093°15'1 2.6
2018-Apr-22 19:31N 30°12' W 093°16'3 5.6
2018-Apr-22 19:00N 30°11' W 093°18'2 4.3
2018-Apr-22 18:30N 30°09' W 093°20'3 6.5
2018-Apr-22 18:00N 30°06' W 093°20'4 7.6
2018-Apr-22 17:31N 30°02' W 093°20'3 6.7
2018-Apr-22 17:00N 29°59' W 093°20'5 9.2
2018-Apr-22 16:31N 29°54' W 093°20'5 9.3
2018-Apr-22 16:01N 29°50' W 093°21'5 9.3
2018-Apr-22 15:30N 29°45' W 093°21'510.0
2018-Apr-22 14:58N 29°40' W 093°20'  
2018-Apr-18 08:08N 29°18' W 093°08'0 0.0
2018-Apr-18 06:38N 29°18' W 093°08'0 0.3
2018-Apr-18 04:53N 29°19' W 093°09'2 5.0
2018-Apr-18 04:30N 29°20' W 093°10'6 7.0
2018-Apr-18 03:43N 29°15' W 093°12'312.2
2018-Apr-18 03:29N 29°12' W 093°12'712.7
2018-Apr-18 02:56N 29°05' W 093°12'512.6
2018-Apr-18 02:30N 28°60' W 093°12'712.4
2018-Apr-18 01:57N 28°53' W 093°12'512.3
2018-Apr-18 01:30N 28°47' W 093°12'712.5
2018-Apr-18 00:58N 28°41' W 093°12'5 9.7
2018-Apr-18 00:30N 28°37' W 093°16'712.9
2018-Apr-18 00:00N 28°37' W 093°23'812.9
2018-Apr-17 23:22N 28°36' W 093°32'513.0
2018-Apr-17 23:00N 28°35' W 093°38'613.0
2018-Apr-17 22:30N 28°34' W 093°45'613.0
2018-Apr-17 22:00N 28°33' W 093°52'613.0
2018-Apr-17 21:30N 28°33' W 093°59'713.1
2018-Apr-17 20:57N 28°33' W 094°08'613.0
2018-Apr-17 20:30N 28°33' W 094°14'713.1
2018-Apr-17 19:58N 28°34' W 094°22'511.2
2018-Apr-17 19:29N 28°34' W 094°28'0 0.3
2018-Apr-17 18:58N 28°34' W 094°28'0 0.0
2018-Apr-17 13:28N 28°34' W 094°28'0 0.0
2018-Apr-17 12:46N 28°34' W 094°28'0 0.0
2018-Apr-17 11:25N 28°34' W 094°28'0 0.0
2018-Apr-17 10:28N 28°34' W 094°28'0 0.0
2018-Apr-17 09:25N 28°34' W 094°28'0 0.0
2018-Apr-17 08:58N 28°34' W 094°28'0 0.0
2018-Apr-17 08:19N 28°34' W 094°28'0 0.1
2018-Apr-17 07:55N 28°34' W 094°28'0 0.1
2018-Apr-17 07:22N 28°34' W 094°28'0 0.2
2018-Apr-17 06:58N 28°34' W 094°28'0 0.1
2018-Apr-17 06:25N 28°34' W 094°28'0 0.1
2018-Apr-17 05:58N 28°34' W 094°28'0 0.0
2018-Apr-17 04:19N 28°34' W 094°28'0 0.1
2018-Apr-17 03:49N 28°34' W 094°28'0 0.0
2018-Apr-17 03:28N 28°34' W 094°28'0 0.0
2018-Apr-17 02:34N 28°34' W 094°28'0 0.1
2018-Apr-17 02:16N 28°34' W 094°28'  

Dump ship's entire track history